createdAt,value
2023-06-11T00:00:08.644Z,88.97
2023-06-11T00:01:08.607Z,88.92
2023-06-11T00:02:08.607Z,88.97
2023-06-11T00:03:08.791Z,88.87
2023-06-11T00:04:08.693Z,89.22
2023-06-11T00:05:08.828Z,89.42
2023-06-11T00:06:08.572Z,88.61
2023-06-11T00:07:08.559Z,88.61
2023-06-11T00:08:09.557Z,89.36
2023-06-11T00:09:08.576Z,88.96
2023-06-11T00:10:08.593Z,88.71
2023-06-11T00:11:08.528Z,89.26
2023-06-11T00:12:08.558Z,89.06
2023-06-11T00:13:08.514Z,89.61
2023-06-11T00:14:08.543Z,89.81
2023-06-11T00:15:08.760Z,89.81
2023-06-11T00:16:08.509Z,89.81
2023-06-11T00:17:08.500Z,90.01
2023-06-11T00:18:08.574Z,90.21
2023-06-11T00:19:08.504Z,89.91
2023-06-11T00:20:08.466Z,90.41
2023-06-11T00:21:08.466Z,90.16
2023-06-11T00:22:08.445Z,90.45
2023-06-11T00:23:08.468Z,91.47
2023-06-11T00:24:08.504Z,91.16
2023-06-11T00:25:08.679Z,90.96
2023-06-11T00:26:08.441Z,91.37
2023-06-11T00:27:08.407Z,90.45
2023-06-11T00:28:08.432Z,90.56
2023-06-11T00:29:08.422Z,91.06
2023-06-11T00:30:08.391Z,91.61
2023-06-11T00:31:08.414Z,91.51
2023-06-11T00:32:08.458Z,91.92
2023-06-11T00:33:08.494Z,92.26
2023-06-11T00:34:08.368Z,92.47
2023-06-11T00:35:08.926Z,92.36
2023-06-11T00:36:08.345Z,92.26
2023-06-11T00:37:08.338Z,92.57
2023-06-11T00:38:08.335Z,92.06
2023-06-11T00:39:08.329Z,92.47
2023-06-11T00:40:08.309Z,93.18
2023-06-11T00:41:08.295Z,92.47
2023-06-11T00:42:08.306Z,93.07
2023-06-11T00:43:08.298Z,93.38
2023-06-11T00:44:08.264Z,93.07
2023-06-11T00:45:08.364Z,93.12
2023-06-11T00:46:08.333Z,93.68
2023-06-11T00:47:08.264Z,94.09
2023-06-11T00:48:08.307Z,93.99
2023-06-11T00:49:08.234Z,94.84
2023-06-11T00:50:08.223Z,94.13
2023-06-11T00:51:08.208Z,93.83
2023-06-11T00:52:08.229Z,93.22
2023-06-11T00:53:08.196Z,93.12
2023-06-11T00:54:08.179Z,93.02
2023-06-11T00:55:08.300Z,93.62
2023-06-11T00:56:08.187Z,93.83
2023-06-11T00:57:09.192Z,93.12
2023-06-11T00:58:08.200Z,93.52
2023-06-11T00:59:08.149Z,93.77
2023-06-11T01:00:08.163Z,93.97
2023-06-11T01:01:08.225Z,94.18
2023-06-11T01:02:08.136Z,93.67
2023-06-11T01:03:08.147Z,93.87
2023-06-11T01:04:08.217Z,93.77
2023-06-11T01:05:08.206Z,93.87
2023-06-11T01:06:08.130Z,94.18
2023-06-11T01:07:08.073Z,93.71
2023-06-11T01:08:08.072Z,94.02
2023-06-11T01:09:08.062Z,94.42
2023-06-11T01:10:08.060Z,94.83
2023-06-11T01:11:11.051Z,94.37
2023-06-11T01:12:09.036Z,95.18
2023-06-11T01:13:08.032Z,94.73
2023-06-11T01:14:08.036Z,95.07
2023-06-11T01:15:08.081Z,94.77
2023-06-11T01:16:08.031Z,95.18
2023-06-11T01:17:08.094Z,95.28
2023-06-11T01:18:08.081Z,95.18
2023-06-11T01:19:07.982Z,94.87
2023-06-11T01:20:08.006Z,95.28
2023-06-11T01:21:07.971Z,94.98
2023-06-11T01:22:07.959Z,95.18
2023-06-11T01:23:07.953Z,95.22
2023-06-11T01:24:07.997Z,95.28
2023-06-11T01:25:08.181Z,95.18
2023-06-11T01:26:07.920Z,96.14
2023-06-11T01:27:07.919Z,95.94
2023-06-11T01:28:07.921Z,96.23
2023-06-11T01:29:07.926Z,95.63
2023-06-11T01:30:07.928Z,95.73
2023-06-11T01:31:07.910Z,96.14
2023-06-11T01:32:07.893Z,95.73
2023-06-11T01:33:07.904Z,95.94
2023-06-11T01:34:07.891Z,96.34
2023-06-11T01:35:08.251Z,96.34
2023-06-11T01:36:07.850Z,96.64
2023-06-11T01:37:07.842Z,96.23
2023-06-11T01:38:07.830Z,96.14
2023-06-11T01:39:07.865Z,95.83
2023-06-11T01:40:07.825Z,95.63
2023-06-11T01:41:07.806Z,96.14
2023-06-11T01:42:07.804Z,96.14
2023-06-11T01:43:07.824Z,95.53
2023-06-11T01:44:07.817Z,96.23
2023-06-11T01:45:07.856Z,96.14
2023-06-11T01:46:07.820Z,96.75
2023-06-11T01:47:07.756Z,96.64
2023-06-11T01:48:07.815Z,96.54
2023-06-11T01:49:07.775Z,96.79
2023-06-11T01:50:07.808Z,96.69
2023-06-11T01:51:07.732Z,96.59
2023-06-11T01:52:07.721Z,96.48
2023-06-11T01:53:07.744Z,96.79
2023-06-11T01:54:07.726Z,96.99
2023-06-11T01:55:07.956Z,97.14
2023-06-11T01:56:07.691Z,97.09
2023-06-11T01:57:07.682Z,96.73
2023-06-11T01:58:07.710Z,97.14
2023-06-11T01:59:07.695Z,97.04
2023-06-11T02:00:07.659Z,96.73
2023-06-11T02:01:07.651Z,96.73
2023-06-11T02:02:07.697Z,97.75
2023-06-11T02:03:07.692Z,97.24
2023-06-11T02:04:07.786Z,97.24
2023-06-11T02:05:07.726Z,97.34
2023-06-11T02:06:07.617Z,97.14
2023-06-11T02:07:07.650Z,97.44
2023-06-11T02:08:08.605Z,97.75
2023-06-11T02:09:07.600Z,97.55
2023-06-11T02:10:07.583Z,97.75
2023-06-11T02:11:07.588Z,97.85
2023-06-11T02:12:07.610Z,98.26
2023-06-11T02:13:07.562Z,98.10
2023-06-11T02:14:07.560Z,98.00
2023-06-11T02:15:07.628Z,97.69
2023-06-11T02:16:07.555Z,98.00
2023-06-11T02:17:07.561Z,98.00
2023-06-11T02:18:07.624Z,97.49
2023-06-11T02:19:07.509Z,97.89
2023-06-11T02:20:07.542Z,98.10
2023-06-11T02:21:07.504Z,98.96
2023-06-11T02:22:07.523Z,98.50
2023-06-11T02:23:07.491Z,98.45
2023-06-11T02:24:07.505Z,98.71
2023-06-11T02:25:07.488Z,97.84
2023-06-11T02:26:07.473Z,98.20
2023-06-11T02:27:07.480Z,98.41
2023-06-11T02:28:07.473Z,98.66
2023-06-11T02:29:07.444Z,97.64
2023-06-11T02:30:07.443Z,98.75
2023-06-11T02:31:07.447Z,98.25
2023-06-11T02:32:07.541Z,98.30
2023-06-11T02:33:07.514Z,98.55
2023-06-11T02:34:07.407Z,98.25
2023-06-11T02:35:07.403Z,98.55
2023-06-11T02:36:07.405Z,98.45
2023-06-11T02:37:07.380Z,98.45
2023-06-11T02:38:07.393Z,98.66
2023-06-11T02:39:07.362Z,98.66
2023-06-11T02:40:07.373Z,98.55
2023-06-11T02:41:07.378Z,98.55
2023-06-11T02:42:07.334Z,98.81
2023-06-11T02:43:07.332Z,98.14
2023-06-11T02:44:07.323Z,98.35
2023-06-11T02:45:07.437Z,98.35
2023-06-11T02:46:07.419Z,98.55
2023-06-11T02:47:07.322Z,98.50
2023-06-11T02:48:07.364Z,98.55
2023-06-11T02:49:07.294Z,98.35
2023-06-11T02:50:07.280Z,98.45
2023-06-11T02:51:07.305Z,98.60
2023-06-11T02:52:07.267Z,98.35
2023-06-11T02:53:07.270Z,98.45
2023-06-11T02:54:07.237Z,98.91
2023-06-11T02:55:07.265Z,98.45
2023-06-11T02:56:07.255Z,98.39
2023-06-11T02:57:07.222Z,98.91
2023-06-11T02:58:07.217Z,98.55
2023-06-11T02:59:07.209Z,98.91
2023-06-11T03:00:07.251Z,98.39
2023-06-11T03:01:07.223Z,98.80
2023-06-11T03:02:07.189Z,98.50
2023-06-11T03:03:07.291Z,99.11
2023-06-11T03:04:07.273Z,98.80
2023-06-11T03:05:07.189Z,98.60
2023-06-11T03:06:07.159Z,99.11
2023-06-11T03:07:07.142Z,99.01
2023-06-11T03:08:07.137Z,99.01
2023-06-11T03:09:07.164Z,99.11
2023-06-11T03:10:07.156Z,98.70
2023-06-11T03:11:07.112Z,98.70
2023-06-11T03:12:07.100Z,98.80
2023-06-11T03:13:07.095Z,98.91
2023-06-11T03:14:07.110Z,99.01
2023-06-11T03:15:07.092Z,99.01
2023-06-11T03:16:07.106Z,99.11
2023-06-11T03:17:07.063Z,99.41
2023-06-11T03:18:07.122Z,98.91
2023-06-11T03:19:07.080Z,98.91
2023-06-11T03:20:07.047Z,99.05
2023-06-11T03:21:07.029Z,99.01
2023-06-11T03:22:07.021Z,99.82
2023-06-11T03:23:07.041Z,99.82
2023-06-11T03:24:07.063Z,98.95
2023-06-11T03:25:06.999Z,98.85
2023-06-11T03:26:06.991Z,99.31
2023-06-11T03:27:07.002Z,99.01
2023-06-11T03:28:07.000Z,99.31
2023-06-11T03:29:06.977Z,98.50
2023-06-11T03:30:06.966Z,98.66
2023-06-11T03:31:07.039Z,98.55
2023-06-11T03:32:06.943Z,98.45
2023-06-11T03:33:06.997Z,98.00
2023-06-11T03:34:06.928Z,97.34
2023-06-11T03:35:06.920Z,97.24
2023-06-11T03:36:06.910Z,96.48
2023-06-11T03:37:06.905Z,96.18
2023-06-11T03:38:06.921Z,95.78
2023-06-11T03:39:06.891Z,95.32
2023-06-11T03:40:06.892Z,94.98
2023-06-11T03:41:06.873Z,93.86
2023-06-11T03:42:06.898Z,92.19
2023-06-11T03:43:06.886Z,92.29
2023-06-11T03:44:06.874Z,91.34
2023-06-11T03:45:06.839Z,89.98
2023-06-11T03:46:06.834Z,89.53
2023-06-11T03:47:06.990Z,89.69
2023-06-11T03:48:06.847Z,88.33
2023-06-11T03:49:06.809Z,88.02
2023-06-11T03:50:06.799Z,87.08
2023-06-11T03:51:06.787Z,86.63
2023-06-11T03:52:06.813Z,86.22
2023-06-11T03:53:06.786Z,85.38
2023-06-11T03:54:06.769Z,84.93
2023-06-11T03:55:06.758Z,84.77
2023-06-11T03:56:06.775Z,84.06
2023-06-11T03:57:06.768Z,84.47
2023-06-11T03:58:06.727Z,84.03
2023-06-11T03:59:07.735Z,84.03
2023-06-11T04:00:06.716Z,83.68
2023-06-11T04:01:06.744Z,83.84
2023-06-11T04:02:06.718Z,82.70
2023-06-11T04:03:06.893Z,81.65
2023-06-11T04:04:06.748Z,80.60
2023-06-11T04:05:06.674Z,80.10
2023-06-11T04:06:07.698Z,79.05
2023-06-11T04:07:06.689Z,78.31
2023-06-11T04:08:06.674Z,78.81
2023-06-11T04:09:06.645Z,77.47
2023-06-11T04:10:06.663Z,77.63
2023-06-11T04:11:06.735Z,77.33
2023-06-11T04:12:06.619Z,76.39
2023-06-11T04:13:06.613Z,76.56
2023-06-11T04:14:06.617Z,75.85
2023-06-11T04:15:06.623Z,75.51
2023-06-11T04:16:07.419Z,75.11
2023-06-11T04:17:07.593Z,74.88
2023-06-11T04:18:06.640Z,74.27
2023-06-11T04:19:06.566Z,74.48
2023-06-11T04:20:06.587Z,73.70
2023-06-11T04:21:06.547Z,73.27
2023-06-11T04:22:06.547Z,72.30
2023-06-11T04:23:06.532Z,72.27
2023-06-11T04:24:09.256Z,72.27
2023-06-11T04:25:07.552Z,71.73
2023-06-11T04:26:06.510Z,72.06
2023-06-11T04:27:06.503Z,71.43
2023-06-11T04:28:06.499Z,71.30
2023-06-11T04:29:06.511Z,70.19
2023-06-11T04:30:06.490Z,70.36
2023-06-11T04:31:06.483Z,70.12
2023-06-11T04:32:06.461Z,69.43
2023-06-11T04:33:06.488Z,68.59
2023-06-11T04:34:06.468Z,69.49
2023-06-11T04:35:06.441Z,69.99
2023-06-11T04:36:06.424Z,69.16
2023-06-11T04:37:06.421Z,68.36
2023-06-11T04:38:06.443Z,69.02
2023-06-11T04:39:06.428Z,67.83
2023-06-11T04:40:06.401Z,69.26
2023-06-11T04:41:06.413Z,68.96
2023-06-11T04:42:06.392Z,69.46
2023-06-11T04:43:06.398Z,69.09
2023-06-11T04:44:06.396Z,69.16
2023-06-11T04:45:06.356Z,69.46
2023-06-11T04:46:06.416Z,68.96
2023-06-11T04:47:06.436Z,68.13
2023-06-11T04:48:38.274Z,67.40
2023-06-11T04:49:06.329Z,66.77
2023-06-11T04:50:06.356Z,66.66
2023-06-11T04:51:06.313Z,66.63
2023-06-11T04:52:06.319Z,66.10
2023-06-11T04:53:06.339Z,66.13
2023-06-11T04:54:06.300Z,65.87
2023-06-11T04:55:06.294Z,65.77
2023-06-11T04:56:06.320Z,65.67
2023-06-11T04:57:06.278Z,65.57
2023-06-11T04:58:06.293Z,65.87
2023-06-11T04:59:06.268Z,65.44
2023-06-11T05:00:06.260Z,64.51
2023-06-11T05:01:06.263Z,65.21
2023-06-11T05:02:06.283Z,64.88
2023-06-11T05:03:06.284Z,64.28
2023-06-11T05:04:06.251Z,64.09
2023-06-11T05:05:06.237Z,63.36
2023-06-11T05:06:06.239Z,63.56
2023-06-11T05:07:06.253Z,62.83
2023-06-11T05:08:06.281Z,62.23
2023-06-11T05:09:06.214Z,62.50
2023-06-11T05:10:06.193Z,62.47
2023-06-11T05:11:06.184Z,61.38
2023-06-11T05:12:06.200Z,61.88
2023-06-11T05:13:06.177Z,62.21
2023-06-11T05:14:06.169Z,61.78
2023-06-11T05:15:06.167Z,61.32
2023-06-11T05:16:06.170Z,60.60
2023-06-11T05:17:06.185Z,60.00
2023-06-11T05:18:06.196Z,59.97
2023-06-11T05:19:06.132Z,59.48
2023-06-11T05:20:06.126Z,59.55
2023-06-11T05:21:06.171Z,59.38
2023-06-11T05:22:06.107Z,59.84
2023-06-11T05:23:06.099Z,58.65
2023-06-11T05:24:06.126Z,58.65
2023-06-11T05:25:06.093Z,58.95
2023-06-11T05:26:06.095Z,59.45
2023-06-11T05:27:07.071Z,58.56
2023-06-11T05:28:06.064Z,58.50
2023-06-11T05:29:06.057Z,58.60
2023-06-11T05:30:06.089Z,58.60
2023-06-11T05:31:06.064Z,57.88
2023-06-11T05:32:06.058Z,57.81
2023-06-11T05:33:06.053Z,58.07
2023-06-11T05:34:06.022Z,58.07
2023-06-11T05:35:06.064Z,57.65
2023-06-11T05:36:06.007Z,57.26
2023-06-11T05:37:06.008Z,57.73
2023-06-11T05:38:05.992Z,57.85
2023-06-11T05:39:05.991Z,57.56
2023-06-11T05:40:06.005Z,58.54
2023-06-11T05:41:05.969Z,57.33
2023-06-11T05:42:05.962Z,57.33
2023-06-11T05:43:05.975Z,57.43
2023-06-11T05:44:05.959Z,56.74
2023-06-11T05:45:05.966Z,56.61
2023-06-11T05:46:05.994Z,56.71
2023-06-11T05:47:05.970Z,56.68
2023-06-11T05:48:05.961Z,56.09
2023-06-11T05:49:05.941Z,56.06
2023-06-11T05:50:05.948Z,55.74
2023-06-11T05:51:05.918Z,56.29
2023-06-11T05:52:05.897Z,55.96
2023-06-11T05:53:05.889Z,55.64
2023-06-11T05:54:05.907Z,55.39
2023-06-11T05:55:05.875Z,55.09
2023-06-11T05:56:05.873Z,55.68
2023-06-11T05:57:05.861Z,55.71
2023-06-11T05:58:05.856Z,56.04
2023-06-11T05:59:05.880Z,56.01
2023-06-11T06:00:05.912Z,56.13
2023-06-11T06:01:05.837Z,56.01
2023-06-11T06:02:05.886Z,56.40
2023-06-11T06:03:06.058Z,55.98
2023-06-11T06:04:05.994Z,54.74
2023-06-11T06:05:05.826Z,54.72
2023-06-11T06:06:05.810Z,55.14
2023-06-11T06:07:05.800Z,54.82
2023-06-11T06:08:05.812Z,54.74
2023-06-11T06:09:05.819Z,54.64
2023-06-11T06:10:05.788Z,55.51
2023-06-11T06:11:05.776Z,54.82
2023-06-11T06:12:05.767Z,53.88
2023-06-11T06:13:05.790Z,54.57
2023-06-11T06:14:05.754Z,55.18
2023-06-11T06:15:05.749Z,54.66
2023-06-11T06:16:05.753Z,54.74
2023-06-11T06:17:05.744Z,53.50
2023-06-11T06:18:05.875Z,52.52
2023-06-11T06:19:05.721Z,50.90
2023-06-11T06:20:05.717Z,52.18
2023-06-11T06:21:05.712Z,50.88
2023-06-11T06:22:05.703Z,51.72
2023-06-11T06:23:05.733Z,53.23
2023-06-11T06:24:05.734Z,55.28
2023-06-11T06:25:05.690Z,56.02
2023-06-11T06:26:05.681Z,55.83
2023-06-11T06:27:05.729Z,57.65
2023-06-11T06:28:05.695Z,56.01
2023-06-11T06:29:05.664Z,57.29
2023-06-11T06:30:05.660Z,58.28
2023-06-11T06:31:05.651Z,59.02
2023-06-11T06:32:05.707Z,59.97
2023-06-11T06:33:05.668Z,58.91
2023-06-11T06:34:05.640Z,60.22
2023-06-11T06:35:05.633Z,60.88
2023-06-11T06:36:05.630Z,62.07
2023-06-11T06:37:05.662Z,63.35
2023-06-11T06:38:05.619Z,62.66
2023-06-11T06:39:05.613Z,61.50
2023-06-11T06:40:05.623Z,63.78
2023-06-11T06:41:05.619Z,63.98
2023-06-11T06:42:05.618Z,61.87
2023-06-11T06:43:05.599Z,61.78
2023-06-11T06:44:05.613Z,61.21
2023-06-11T06:45:05.570Z,61.31
2023-06-11T06:46:05.601Z,60.25
2023-06-11T06:47:05.562Z,61.61
2023-06-11T06:48:05.601Z,61.02
2023-06-11T06:49:05.603Z,60.52
2023-06-11T06:50:05.556Z,61.83
2023-06-11T06:51:05.559Z,60.32
2023-06-11T06:52:05.528Z,60.35
2023-06-11T06:53:05.538Z,61.80
2023-06-11T06:54:05.519Z,61.94
2023-06-11T06:55:05.509Z,60.45
2023-06-11T06:56:05.528Z,62.33
2023-06-11T06:57:05.505Z,61.83
2023-06-11T06:58:05.495Z,61.38
2023-06-11T06:59:05.483Z,60.19
2023-06-11T07:00:05.521Z,61.51
2023-06-11T07:01:05.529Z,61.21
2023-06-11T07:02:08.717Z,60.22
2023-06-11T07:03:05.513Z,60.32
2023-06-11T07:04:05.458Z,61.74
2023-06-11T07:05:05.502Z,60.35
2023-06-11T07:06:05.509Z,61.78
2023-06-11T07:07:05.444Z,59.84
2023-06-11T07:08:05.430Z,59.71
2023-06-11T07:09:05.427Z,60.36
2023-06-11T07:10:05.444Z,61.38
2023-06-11T07:11:05.414Z,60.30
2023-06-11T07:12:05.398Z,61.15
2023-06-11T07:13:05.403Z,61.90
2023-06-11T07:14:05.418Z,63.81
2023-06-11T07:15:05.423Z,62.59
2023-06-11T07:16:05.402Z,63.09
2023-06-11T07:17:05.385Z,63.78
2023-06-11T07:18:05.426Z,62.29
2023-06-11T07:19:05.402Z,61.77
2023-06-11T07:20:05.393Z,61.44
2023-06-11T07:21:05.363Z,59.33
2023-06-11T07:22:05.342Z,60.30
2023-06-11T07:23:05.341Z,59.67
2023-06-11T07:24:05.386Z,61.35
2023-06-11T07:25:05.337Z,60.52
2023-06-11T07:26:05.323Z,61.51
2023-06-11T07:27:05.310Z,63.09
2023-06-11T07:28:05.349Z,60.69
2023-06-11T07:29:05.308Z,60.13
2023-06-11T07:30:06.292Z,60.45
2023-06-11T07:31:05.366Z,60.94
2023-06-11T07:32:05.276Z,61.83
2023-06-11T07:33:05.362Z,61.47
2023-06-11T07:34:05.258Z,63.06
2023-06-11T07:35:05.254Z,60.16
2023-06-11T07:36:05.242Z,60.19
2023-06-11T07:37:05.235Z,61.94
2023-06-11T07:38:05.252Z,61.38
2023-06-11T07:39:05.223Z,61.41
2023-06-11T07:40:05.218Z,62.13
2023-06-11T07:41:05.212Z,61.54
2023-06-11T07:42:05.232Z,62.04
2023-06-11T07:43:05.246Z,62.79
2023-06-11T07:44:05.192Z,61.02
2023-06-11T07:45:05.183Z,61.74
2023-06-11T07:46:05.217Z,61.24
2023-06-11T07:47:05.252Z,61.74
2023-06-11T07:48:05.240Z,61.29
2023-06-11T07:49:05.157Z,61.18
2023-06-11T07:50:05.165Z,62.01
2023-06-11T07:51:05.149Z,61.78
2023-06-11T07:52:05.169Z,60.36
2023-06-11T07:53:05.135Z,60.27
2023-06-11T07:54:05.134Z,58.74
2023-06-11T07:55:05.126Z,61.02
2023-06-11T07:56:05.145Z,60.10
2023-06-11T07:57:05.135Z,57.88
2023-06-11T07:58:05.098Z,59.36
2023-06-11T07:59:05.092Z,59.56
2023-06-11T08:00:05.085Z,60.38
2023-06-11T08:01:05.108Z,60.48
2023-06-11T08:02:05.105Z,60.06
2023-06-11T08:03:05.166Z,57.56
2023-06-11T08:04:05.067Z,57.75
2023-06-11T08:05:05.048Z,57.39
2023-06-11T08:06:05.088Z,58.45
2023-06-11T08:07:05.035Z,57.85
2023-06-11T08:08:05.023Z,58.25
2023-06-11T08:09:05.019Z,58.07
2023-06-11T08:10:05.055Z,56.76
2023-06-11T08:11:05.037Z,58.61
2023-06-11T08:12:05.995Z,57.62
2023-06-11T08:13:04.990Z,56.02
2023-06-11T08:14:04.985Z,57.07
2023-06-11T08:15:05.012Z,56.29
2023-06-11T08:16:04.983Z,57.37
2023-06-11T08:17:05.012Z,57.64
2023-06-11T08:18:04.978Z,55.89
2023-06-11T08:19:04.952Z,55.60
2023-06-11T08:20:04.968Z,55.92
2023-06-11T08:21:04.940Z,56.81
2023-06-11T08:22:04.929Z,56.71
2023-06-11T08:23:04.938Z,56.29
2023-06-11T08:24:05.021Z,55.40
2023-06-11T08:25:04.947Z,55.69
2023-06-11T08:26:04.921Z,57.64
2023-06-11T08:27:04.899Z,54.55
2023-06-11T08:28:04.887Z,55.15
2023-06-11T08:29:04.907Z,53.05
2023-06-11T08:30:04.871Z,53.54
2023-06-11T08:31:04.869Z,54.72
2023-06-11T08:32:04.882Z,53.09
2023-06-11T08:33:04.878Z,50.61
2023-06-11T08:34:04.868Z,51.40
2023-06-11T08:35:04.837Z,49.82
2023-06-11T08:36:04.848Z,52.50
2023-06-11T08:37:04.823Z,48.76
2023-06-11T08:38:04.815Z,48.54
2023-06-11T08:39:04.842Z,50.49
2023-06-11T08:40:04.803Z,51.28
2023-06-11T08:41:04.799Z,50.88
2023-06-11T08:42:04.797Z,51.23
2023-06-11T08:43:04.813Z,53.67
2023-06-11T08:44:04.805Z,53.37
2023-06-11T08:45:04.768Z,53.50
2023-06-11T08:46:04.806Z,52.56
2023-06-11T08:47:04.759Z,54.23
2023-06-11T08:48:04.853Z,53.17
2023-06-11T08:49:04.766Z,51.89
2023-06-11T08:50:04.745Z,53.44
2023-06-11T08:51:04.731Z,52.31
2023-06-11T08:52:04.734Z,52.26
2023-06-11T08:53:04.745Z,48.91
2023-06-11T08:54:04.707Z,50.59
2023-06-11T08:55:04.703Z,48.42
2023-06-11T08:56:04.697Z,48.61
2023-06-11T08:57:04.690Z,49.87
2023-06-11T08:58:04.701Z,50.07
2023-06-11T08:59:04.671Z,51.05
2023-06-11T09:00:04.666Z,52.56
2023-06-11T09:01:04.659Z,51.69
2023-06-11T09:02:04.757Z,50.34
2023-06-11T09:03:04.738Z,50.16
2023-06-11T09:04:04.648Z,52.24
2023-06-11T09:05:04.628Z,49.13
2023-06-11T09:06:04.618Z,47.41
2023-06-11T09:07:04.953Z,47.01
2023-06-11T09:08:04.651Z,46.72
2023-06-11T09:09:04.601Z,49.08
2023-06-11T09:10:04.623Z,46.10
2023-06-11T09:11:04.591Z,46.12
2023-06-11T09:12:04.623Z,46.26
2023-06-11T09:13:04.578Z,45.50
2023-06-11T09:14:04.574Z,48.75
2023-06-11T09:15:04.594Z,44.89
2023-06-11T09:16:04.575Z,44.22
2023-06-11T09:17:04.574Z,47.67
2023-06-11T09:18:05.381Z,45.70
2023-06-11T09:19:04.534Z,45.23
2023-06-11T09:20:04.519Z,46.01
2023-06-11T09:21:04.579Z,45.62
2023-06-11T09:22:04.538Z,47.13
2023-06-11T09:23:04.514Z,45.25
2023-06-11T09:24:04.520Z,46.44
2023-06-11T09:25:04.488Z,45.54
2023-06-11T09:26:04.518Z,45.54
2023-06-11T09:27:04.479Z,45.84
2023-06-11T09:28:04.472Z,45.45
2023-06-11T09:29:04.463Z,45.64
2023-06-11T09:30:04.460Z,44.36
2023-06-11T09:31:04.480Z,43.69
2023-06-11T09:32:09.968Z,46.48
2023-06-11T09:33:05.486Z,45.98
2023-06-11T09:34:04.424Z,45.79
2023-06-11T09:35:04.443Z,46.38
2023-06-11T09:36:04.447Z,45.89
2023-06-11T09:37:04.403Z,46.28
2023-06-11T09:38:04.397Z,47.27
2023-06-11T09:39:04.384Z,47.89
2023-06-11T09:40:04.411Z,45.63
2023-06-11T09:41:04.371Z,46.40
2023-06-11T09:42:04.367Z,45.71
2023-06-11T09:43:04.366Z,50.16
2023-06-11T09:44:04.363Z,46.28
2023-06-11T09:45:04.368Z,47.49
2023-06-11T09:46:04.397Z,45.71
2023-06-11T09:47:04.328Z,47.49
2023-06-11T09:48:04.337Z,45.51
2023-06-11T09:49:04.340Z,46.40
2023-06-11T09:50:04.341Z,45.83
2023-06-11T09:51:04.291Z,46.05
2023-06-11T09:52:04.291Z,46.35
2023-06-11T09:53:04.277Z,47.31
2023-06-11T09:54:04.308Z,45.45
2023-06-11T09:55:04.284Z,48.21
2023-06-11T09:56:10.964Z,46.03
2023-06-11T09:57:06.269Z,48.90
2023-06-11T09:58:04.254Z,46.60
2023-06-11T09:59:04.275Z,46.11
2023-06-11T10:00:04.245Z,47.49
2023-06-11T10:01:07.211Z,47.31
2023-06-11T10:02:05.222Z,48.48
2023-06-11T10:03:04.321Z,48.88
2023-06-11T10:04:04.280Z,46.50
2023-06-11T10:05:04.208Z,49.37
2023-06-11T10:06:04.193Z,49.07
2023-06-11T10:07:04.191Z,48.18
2023-06-11T10:08:04.229Z,47.52
2023-06-11T10:09:04.174Z,49.59
2023-06-11T10:10:04.165Z,47.91
2023-06-11T10:11:04.187Z,47.61
2023-06-11T10:12:04.149Z,47.61
2023-06-11T10:13:04.180Z,47.61
2023-06-11T10:14:04.138Z,47.52
2023-06-11T10:15:04.128Z,47.59
2023-06-11T10:16:04.249Z,45.31
2023-06-11T10:17:04.117Z,45.71
2023-06-11T10:18:04.183Z,46.30
2023-06-11T10:19:04.108Z,46.80
2023-06-11T10:20:04.094Z,45.41
2023-06-11T10:21:04.088Z,47.00
2023-06-11T10:22:04.083Z,48.08
2023-06-11T10:23:06.332Z,48.18
2023-06-11T10:24:05.119Z,48.18
2023-06-11T10:25:04.064Z,48.08
2023-06-11T10:26:04.041Z,49.57
2023-06-11T10:27:04.092Z,49.66
2023-06-11T10:28:04.059Z,48.16
2023-06-11T10:29:06.345Z,48.36
2023-06-11T10:30:04.012Z,47.59
2023-06-11T10:31:04.016Z,46.28
2023-06-11T10:32:04.015Z,45.59
2023-06-11T10:33:04.160Z,47.66
2023-06-11T10:34:04.118Z,51.10
2023-06-11T10:35:04.141Z,47.74
2023-06-11T10:36:03.970Z,46.18
2023-06-11T10:37:03.983Z,46.97
2023-06-11T10:38:03.955Z,46.48
2023-06-11T10:39:03.942Z,46.67
2023-06-11T10:40:03.930Z,49.35
2023-06-11T10:41:03.999Z,47.27
2023-06-11T10:42:03.975Z,46.38
2023-06-11T10:43:03.904Z,46.88
2023-06-11T10:44:03.899Z,45.37
2023-06-11T10:45:03.880Z,47.32
2023-06-11T10:46:04.910Z,45.57
2023-06-11T10:47:04.087Z,45.61
2023-06-11T10:48:36.271Z,46.23
2023-06-11T10:49:03.861Z,48.38
2023-06-11T10:50:03.857Z,46.40
2023-06-11T10:51:03.892Z,47.69
2023-06-11T10:52:03.867Z,46.20
2023-06-11T10:53:03.891Z,47.27
2023-06-11T10:54:03.840Z,45.68
2023-06-11T10:55:03.826Z,46.08
2023-06-11T10:56:03.854Z,45.68
2023-06-11T10:57:03.838Z,45.19
2023-06-11T10:58:03.807Z,46.20
2023-06-11T10:59:03.791Z,45.21
2023-06-11T11:00:03.805Z,47.00
2023-06-11T11:01:03.801Z,45.81
2023-06-11T11:02:03.791Z,46.01
2023-06-11T11:03:03.817Z,45.39
2023-06-11T11:04:03.867Z,44.23
2023-06-11T11:05:03.770Z,45.51
2023-06-11T11:06:03.760Z,45.71
2023-06-11T11:07:03.721Z,44.42
2023-06-11T11:08:03.719Z,47.29
2023-06-11T11:09:03.712Z,44.23
2023-06-11T11:10:03.738Z,41.55
2023-06-11T11:11:03.712Z,44.52
2023-06-11T11:12:03.698Z,43.16
2023-06-11T11:13:03.685Z,46.89
2023-06-11T11:14:03.675Z,44.72
2023-06-11T11:15:03.690Z,43.24
2023-06-11T11:16:03.759Z,42.84
2023-06-11T11:17:03.705Z,43.13
2023-06-11T11:18:03.728Z,42.35
2023-06-11T11:19:03.633Z,44.52
2023-06-11T11:20:03.660Z,43.43
2023-06-11T11:21:03.624Z,43.04
2023-06-11T11:22:03.619Z,43.83
2023-06-11T11:23:03.608Z,44.82
2023-06-11T11:24:03.702Z,44.35
2023-06-11T11:25:03.612Z,46.20
2023-06-11T11:26:03.589Z,42.82
2023-06-11T11:27:03.582Z,43.80
2023-06-11T11:28:03.573Z,43.51
2023-06-11T11:29:03.577Z,43.02
2023-06-11T11:30:04.155Z,43.80
2023-06-11T11:31:04.543Z,45.98
2023-06-11T11:32:03.582Z,44.68
2023-06-11T11:33:03.647Z,45.57
2023-06-11T11:34:03.539Z,45.39
2023-06-11T11:35:03.516Z,45.71
2023-06-11T11:36:03.499Z,45.98
2023-06-11T11:37:03.497Z,45.90
2023-06-11T11:38:03.494Z,44.90
2023-06-11T11:39:03.506Z,44.01
2023-06-11T11:40:03.475Z,44.70
2023-06-11T11:41:03.474Z,44.60
2023-06-11T11:42:03.473Z,45.61
2023-06-11T11:43:03.488Z,45.51
2023-06-11T11:44:03.478Z,45.61
2023-06-11T11:45:03.432Z,45.59
2023-06-11T11:46:03.465Z,44.80
2023-06-11T11:47:03.435Z,45.59
2023-06-11T11:48:05.696Z,44.80
2023-06-11T11:49:04.412Z,43.13
2023-06-11T11:50:03.402Z,44.52
2023-06-11T11:51:03.395Z,44.80
2023-06-11T11:52:03.390Z,43.93
2023-06-11T11:53:03.401Z,43.85
2023-06-11T11:54:03.907Z,44.32
2023-06-11T11:55:04.358Z,44.31
2023-06-11T11:56:06.451Z,43.91
2023-06-11T11:57:04.371Z,41.61
2023-06-11T11:58:03.373Z,45.17
2023-06-11T11:59:03.325Z,42.50
2023-06-11T12:00:03.314Z,42.82
2023-06-11T12:01:03.315Z,44.72
2023-06-11T12:02:03.331Z,44.13
2023-06-11T12:03:03.401Z,43.73
2023-06-11T12:04:03.345Z,43.39
2023-06-11T12:05:03.280Z,42.80
2023-06-11T12:06:03.380Z,43.02
2023-06-11T12:07:03.338Z,42.44
2023-06-11T12:08:03.252Z,42.54
2023-06-11T12:09:03.253Z,42.35
2023-06-11T12:10:04.038Z,42.43
2023-06-11T12:11:04.255Z,44.09
2023-06-11T12:12:06.121Z,44.78
2023-06-11T12:13:04.206Z,44.58
2023-06-11T12:14:03.194Z,42.30
2023-06-11T12:15:03.208Z,42.90
2023-06-11T12:16:04.900Z,42.70
2023-06-11T12:17:04.412Z,44.60
2023-06-11T12:18:03.194Z,40.92
2023-06-11T12:19:18.712Z,41.81
2023-06-11T12:20:05.154Z,43.69
2023-06-11T12:21:03.164Z,40.41
2023-06-11T12:22:03.136Z,40.41
2023-06-11T12:23:03.132Z,39.32
2023-06-11T12:24:03.179Z,41.69
2023-06-11T12:25:03.182Z,42.38
2023-06-11T12:26:03.166Z,39.81
2023-06-11T12:27:06.482Z,41.30
2023-06-11T12:28:05.097Z,40.62
2023-06-11T12:29:03.087Z,40.72
2023-06-11T12:30:03.107Z,41.73
2023-06-11T12:31:03.064Z,44.31
2023-06-11T12:32:03.161Z,43.91
2023-06-11T12:33:03.082Z,43.10
2023-06-11T12:34:03.082Z,43.98
2023-06-11T12:35:03.092Z,42.38
2023-06-11T12:36:03.021Z,42.78
2023-06-11T12:37:03.013Z,40.72
2023-06-11T12:38:03.019Z,40.64
2023-06-11T12:39:03.032Z,41.33
2023-06-11T12:40:03.020Z,42.43
2023-06-11T12:41:02.989Z,42.32
2023-06-11T12:42:02.977Z,42.13
2023-06-11T12:43:02.970Z,41.63
2023-06-11T12:44:03.043Z,41.02
2023-06-11T12:45:04.466Z,43.80
2023-06-11T12:46:03.012Z,44.60
2023-06-11T12:47:02.941Z,43.31
2023-06-11T12:48:02.948Z,41.73
2023-06-11T12:49:02.946Z,42.32
2023-06-11T12:50:02.909Z,42.43
2023-06-11T12:51:02.906Z,42.84
2023-06-11T12:52:02.893Z,44.09